< < Back
Terminal Aerodrome Forecast


Current Version              Previous Versions:   1  2  3  4  5  6  7  8  9  

Terminal Aerodrome Forecast

540
FTUS42 KGSP 041736
TAFAVL
TAF
KAVL 041736Z 0418/0518 34006KT P6SM SCT060
     FM050900 32003KT 6SM BR SCT150
     FM051300 30004KT P6SM SCT050 BKN200=

Latest METAR

777
SAUS70 KWBC 050300 RRE
MTRAVL
METAR KAVL 050254Z 00000KT 10SM CLR 23/20 A3012 RMK AO2 SLP169 T02280200
53013


USA.gov is the U.S. government's official web portal to all federal, state and local government web resources and services.